createdAt,value
2019-04-16T00:00:34.216Z,4.80
2019-04-16T00:02:27.582Z,4.40
2019-04-16T00:03:27.588Z,5.30
2019-04-16T00:05:21.100Z,11.90
2019-04-16T00:06:20.928Z,7.70
2019-04-16T00:08:27.177Z,8.50
2019-04-16T00:09:14.256Z,4.70
2019-04-16T00:11:08.269Z,4.10
2019-04-16T00:12:08.043Z,5.30
2019-04-16T00:14:03.673Z,3.60
2019-04-16T00:15:01.379Z,6.80
2019-04-16T00:16:54.951Z,5.70
2019-04-16T00:17:54.711Z,7.10
2019-04-16T00:19:48.065Z,5.10
2019-04-16T00:20:48.065Z,4.30
2019-04-16T00:22:41.634Z,4.00
2019-04-16T00:23:41.401Z,5.00
2019-04-16T00:25:34.749Z,7.90
2019-04-16T00:26:34.802Z,6.90
2019-04-16T00:28:30.520Z,9.60
2019-04-16T00:29:32.708Z,14.40
2019-04-16T00:31:21.450Z,5.50
2019-04-16T00:32:21.425Z,4.60
2019-04-16T00:34:14.963Z,5.20
2019-04-16T00:35:15.685Z,4.30
2019-04-16T00:37:08.144Z,5.10
2019-04-16T00:38:08.132Z,4.50
2019-04-16T00:40:01.709Z,7.00
2019-04-16T00:41:02.023Z,4.90
2019-04-16T00:42:54.830Z,7.50
2019-04-16T00:43:54.810Z,10.70
2019-04-16T00:45:48.343Z,5.00
2019-04-16T00:46:48.149Z,5.50
2019-04-16T00:48:41.511Z,6.80
2019-04-16T00:49:41.513Z,7.70
2019-04-16T00:51:35.099Z,7.10
2019-04-16T00:52:36.950Z,7.60
2019-04-16T00:54:28.308Z,7.00
2019-04-16T00:55:28.224Z,8.30
2019-04-16T00:57:21.876Z,6.00
2019-04-16T00:58:22.122Z,4.70
2019-04-16T01:00:14.886Z,4.40
2019-04-16T01:01:14.880Z,8.40
2019-04-16T01:03:08.541Z,7.00
2019-04-16T01:04:08.229Z,6.60
2019-04-16T01:06:01.673Z,6.90
2019-04-16T01:07:01.559Z,8.30
2019-04-16T01:08:55.750Z,5.50
2019-04-16T01:09:54.908Z,6.30
2019-04-16T01:11:48.947Z,7.20
2019-04-16T01:12:48.253Z,7.40
2019-04-16T01:14:41.827Z,8.10
2019-04-16T01:15:41.590Z,13.40
2019-04-16T01:17:36.043Z,11.10
2019-04-16T01:18:38.461Z,8.20
2019-04-16T01:20:29.114Z,7.90
2019-04-16T01:21:28.836Z,7.30
2019-04-16T01:23:22.206Z,8.40
2019-04-16T01:24:22.197Z,5.20
2019-04-16T01:26:15.782Z,11.90
2019-04-16T01:27:15.561Z,8.20
2019-04-16T01:29:08.892Z,8.80
2019-04-16T01:30:08.890Z,9.10
2019-04-16T01:32:02.515Z,9.90
2019-04-16T01:33:02.275Z,13.60
2019-04-16T01:34:55.621Z,8.60
2019-04-16T01:35:55.619Z,7.60
2019-04-16T01:37:49.183Z,9.20
2019-04-16T01:38:48.962Z,10.10
2019-04-16T01:43:35.826Z,8.60
2019-04-16T01:44:35.638Z,7.40
2019-04-16T01:46:32.535Z,7.90
2019-04-16T01:47:29.007Z,9.80
2019-04-16T01:49:22.565Z,6.40
2019-04-16T01:50:22.347Z,6.10
2019-04-16T01:52:18.717Z,11.10
2019-04-16T01:53:18.387Z,9.90
2019-04-16T01:55:09.290Z,10.00
2019-04-16T01:56:09.054Z,9.70
2019-04-16T01:58:03.539Z,9.30
2019-04-16T01:59:05.524Z,10.50
2019-04-16T02:00:55.993Z,14.20
2019-04-16T02:01:55.770Z,13.40
2019-04-16T02:03:59.730Z,7.40
2019-04-16T02:04:52.109Z,10.70
2019-04-16T02:06:43.317Z,10.00
2019-04-16T02:07:42.453Z,8.20
2019-04-16T02:09:35.858Z,6.90
2019-04-16T02:10:38.523Z,7.40
2019-04-16T02:12:29.389Z,8.00
2019-04-16T02:13:29.150Z,6.40
2019-04-16T02:15:22.547Z,7.90
2019-04-16T02:16:25.224Z,11.20
2019-04-16T02:18:16.163Z,7.50
2019-04-16T02:19:15.849Z,9.00
2019-04-16T02:21:10.697Z,9.90
2019-04-16T02:22:12.547Z,7.10
2019-04-16T02:24:02.762Z,10.10
2019-04-16T02:25:02.549Z,9.90
2019-04-16T02:26:55.995Z,12.60
2019-04-16T02:27:57.021Z,12.50
2019-04-16T02:29:49.549Z,12.20
2019-04-16T02:30:49.249Z,9.20
2019-04-16T02:32:42.604Z,7.80
2019-04-16T02:33:42.587Z,8.40
2019-04-16T02:35:36.196Z,6.20
2019-04-16T02:36:35.970Z,5.80
2019-04-16T02:38:29.349Z,9.00
2019-04-16T02:39:47.366Z,9.60
2019-04-16T02:41:24.499Z,8.50
2019-04-16T02:42:22.664Z,8.90
2019-04-16T02:44:17.171Z,13.00
2019-04-16T02:45:23.032Z,5.80
2019-04-16T02:47:10.196Z,5.60
2019-04-16T02:48:14.702Z,8.50
2019-04-16T02:50:03.193Z,6.70
2019-04-16T02:51:07.260Z,7.40
2019-04-16T02:52:56.271Z,8.30
2019-04-16T02:53:58.681Z,10.40
2019-04-16T02:55:49.416Z,8.20
2019-04-16T02:56:52.106Z,6.00
2019-04-16T02:58:42.971Z,5.30
2019-04-16T02:59:46.264Z,4.90
2019-04-16T03:01:36.115Z,5.00
2019-04-16T03:02:36.070Z,2.70
2019-04-16T03:04:29.675Z,5.40
2019-04-16T03:07:22.872Z,4.00
2019-04-16T03:08:22.787Z,3.00
2019-04-16T03:10:16.371Z,5.70
2019-04-16T03:11:17.095Z,9.40
2019-04-16T03:13:09.482Z,7.70
2019-04-16T03:14:09.484Z,6.00
2019-04-16T03:16:06.159Z,4.00
2019-04-16T03:17:02.902Z,5.60
2019-04-16T03:18:56.265Z,6.10
2019-04-16T03:19:56.251Z,2.50
2019-04-16T03:21:50.193Z,3.50
2019-04-16T03:22:49.942Z,3.00
2019-04-16T03:24:43.546Z,6.40
2019-04-16T03:25:44.376Z,4.00
2019-04-16T03:27:37.708Z,4.40
2019-04-16T03:28:36.881Z,2.50
2019-04-16T03:30:30.255Z,4.20
2019-04-16T03:31:30.242Z,5.00
2019-04-16T03:33:23.379Z,4.50
2019-04-16T03:34:23.154Z,3.20
2019-04-16T03:36:16.513Z,5.70
2019-04-16T03:37:16.512Z,4.10
2019-04-16T03:39:13.202Z,3.50
2019-04-16T03:40:17.844Z,2.60
2019-04-16T03:42:03.512Z,4.60
2019-04-16T03:43:04.460Z,4.00
2019-04-16T03:44:56.391Z,4.10
2019-04-16T03:45:56.178Z,7.50
2019-04-16T03:47:51.327Z,3.60
2019-04-16T03:48:49.490Z,7.30
2019-04-16T03:50:43.038Z,7.70
2019-04-16T03:51:42.841Z,7.70
2019-04-16T03:53:35.732Z,4.40
2019-04-16T03:54:35.739Z,3.40
2019-04-16T03:56:30.655Z,8.10
2019-04-16T03:57:32.718Z,4.10
2019-04-16T03:59:22.401Z,3.30
2019-04-16T04:01:54.745Z,6.70
2019-04-16T04:02:55.266Z,4.40
2019-04-16T04:04:48.417Z,4.80
2019-04-16T04:05:47.815Z,4.10
2019-04-16T04:07:44.086Z,7.80
2019-04-16T04:08:41.151Z,4.50
2019-04-16T04:10:37.050Z,4.40
2019-04-16T04:11:34.489Z,5.40
2019-04-16T04:13:28.164Z,8.90
2019-04-16T04:14:27.828Z,8.60
2019-04-16T04:16:21.789Z,4.90
2019-04-16T04:17:21.171Z,4.90
2019-04-16T04:19:15.991Z,9.30
2019-04-16T04:20:18.153Z,10.20
2019-04-16T04:22:08.304Z,4.50
2019-04-16T04:23:08.524Z,3.80
2019-04-16T04:25:04.493Z,9.00
2019-04-16T04:26:01.630Z,7.00
2019-04-16T04:27:55.575Z,3.30
2019-04-16T04:28:54.959Z,2.40
2019-04-16T04:30:49.046Z,2.60
2019-04-16T04:31:48.326Z,2.80
2019-04-16T04:33:43.085Z,3.70
2019-04-16T04:34:41.680Z,2.00
2019-04-16T04:36:35.255Z,2.60
2019-04-16T04:37:35.025Z,2.30
2019-04-16T04:39:28.383Z,3.60
2019-04-16T04:40:28.387Z,2.10
2019-04-16T04:42:21.971Z,2.00
2019-04-16T04:43:21.726Z,2.70
2019-04-16T04:45:15.096Z,3.50
2019-04-16T04:46:15.602Z,4.50
2019-04-16T04:48:11.180Z,3.00
2019-04-16T04:49:08.402Z,3.00
2019-04-16T04:51:06.886Z,3.40
2019-04-16T04:52:01.760Z,2.30
2019-04-16T04:53:55.332Z,2.20
2019-04-16T04:54:55.099Z,3.00
2019-04-16T04:56:48.490Z,5.60
2019-04-16T04:57:48.459Z,8.20
2019-04-16T04:59:46.130Z,4.10
2019-04-16T05:00:45.813Z,4.00
2019-04-16T05:02:39.171Z,2.80
2019-04-16T05:03:39.736Z,2.50
2019-04-16T05:05:32.790Z,2.10
2019-04-16T05:06:32.571Z,2.80
2019-04-16T05:08:28.659Z,9.10
2019-04-16T05:09:29.150Z,2.60
2019-04-16T05:11:19.699Z,3.90
2019-04-16T05:12:21.369Z,3.10
2019-04-16T05:14:12.606Z,3.30
2019-04-16T05:15:12.592Z,2.70
2019-04-16T05:17:06.495Z,2.20
2019-04-16T05:18:06.139Z,3.30
2019-04-16T05:19:59.290Z,5.60
2019-04-16T05:20:59.272Z,5.50
2019-04-16T05:22:54.459Z,2.30
2019-04-16T05:23:57.046Z,4.00
2019-04-16T05:25:46.076Z,1.80
2019-04-16T05:26:46.057Z,2.30
2019-04-16T05:28:44.484Z,3.00
2019-04-16T05:29:39.404Z,2.50
2019-04-16T05:31:34.366Z,2.80
2019-04-16T05:32:34.019Z,6.30
2019-04-16T05:35:59.468Z,2.30
2019-04-16T05:36:58.169Z,2.40
2019-04-16T05:38:55.507Z,2.40
2019-04-16T05:39:51.506Z,3.40
2019-04-16T05:41:45.139Z,5.90
2019-04-16T05:42:44.840Z,2.80
2019-04-16T05:44:38.294Z,2.30
2019-04-16T05:45:38.209Z,2.80
2019-04-16T05:47:31.823Z,3.60
2019-04-16T05:48:31.597Z,9.90
2019-04-16T05:50:28.728Z,2.70
2019-04-16T05:51:24.912Z,3.60
2019-04-16T05:53:18.490Z,2.80
2019-04-16T05:54:18.275Z,8.80
2019-04-16T05:56:11.794Z,2.60
2019-04-16T05:57:11.591Z,3.40
2019-04-16T05:59:04.776Z,5.80
2019-04-16T06:00:09.310Z,5.80
2019-04-16T06:01:57.845Z,3.60
2019-04-16T06:02:57.792Z,3.20
2019-04-16T06:04:55.649Z,4.30
2019-04-16T06:05:51.147Z,3.90
2019-04-16T06:07:44.524Z,2.20
2019-04-16T06:08:44.506Z,2.20
2019-04-16T06:10:38.091Z,3.50
2019-04-16T06:11:37.855Z,3.10
2019-04-16T06:13:31.207Z,2.20
2019-04-16T06:14:31.280Z,2.70
2019-04-16T06:16:25.759Z,1.90
2019-04-16T06:17:25.889Z,3.40
2019-04-16T06:19:17.884Z,4.00
2019-04-16T06:20:20.515Z,5.70
2019-04-16T06:22:11.472Z,1.90
2019-04-16T06:23:11.227Z,3.30
2019-04-16T06:25:09.242Z,1.60
2019-04-16T06:26:04.566Z,2.00
2019-04-16T06:28:01.221Z,2.00
2019-04-16T06:29:00.012Z,2.00
2019-04-16T06:30:52.348Z,2.60
2019-04-16T06:31:51.235Z,2.80
2019-04-16T06:33:44.872Z,2.40
2019-04-16T06:34:44.621Z,3.60
2019-04-16T06:36:37.951Z,7.60
2019-04-16T06:37:37.929Z,8.30
2019-04-16T06:39:31.514Z,3.70
2019-04-16T06:40:32.684Z,3.70
2019-04-16T06:42:24.713Z,2.00
2019-04-16T06:43:26.323Z,1.90
2019-04-16T06:45:18.177Z,3.70
2019-04-16T06:46:17.940Z,3.40
2019-04-16T06:48:13.169Z,1.90
2019-04-16T06:49:11.272Z,2.10
2019-04-16T06:51:04.834Z,1.30
2019-04-16T06:52:04.627Z,3.20
2019-04-16T06:53:57.961Z,2.90
2019-04-16T06:55:00.491Z,5.60
2019-04-16T06:56:51.547Z,2.10
2019-04-16T06:57:51.306Z,2.10
2019-04-16T06:59:44.647Z,7.10
2019-04-16T07:00:44.637Z,4.50
2019-04-16T07:02:43.097Z,1.90
2019-04-16T07:03:37.989Z,3.10
2019-04-16T07:05:32.999Z,4.80
2019-04-16T07:06:35.914Z,2.70
2019-04-16T07:08:36.902Z,1.90
2019-04-16T07:09:26.293Z,2.10
2019-04-16T07:11:18.107Z,1.80
2019-04-16T07:12:18.362Z,3.30
2019-04-16T07:14:15.584Z,4.60
2019-04-16T07:15:11.348Z,5.60
2019-04-16T07:17:04.733Z,4.70
2019-04-16T07:18:05.424Z,3.00
2019-04-16T07:19:58.876Z,2.70
2019-04-16T07:20:58.042Z,3.90
2019-04-16T07:22:53.000Z,1.40
2019-04-16T07:23:56.997Z,1.70
2019-04-16T07:25:45.356Z,1.70
2019-04-16T07:26:47.880Z,5.00
2019-04-16T07:28:38.118Z,2.10
2019-04-16T07:29:38.120Z,1.90
2019-04-16T07:31:34.726Z,3.10
2019-04-16T07:32:30.393Z,2.70
2019-04-16T07:34:23.837Z,1.50
2019-04-16T07:35:26.941Z,1.40
2019-04-16T07:37:17.929Z,4.20
2019-04-16T07:38:17.077Z,3.60
2019-04-16T07:40:18.019Z,3.70
2019-04-16T07:41:12.149Z,3.80
2019-04-16T07:43:04.039Z,2.70
2019-04-16T07:44:07.807Z,3.00
2019-04-16T07:46:57.161Z,1.60
2019-04-16T07:48:51.499Z,1.60
2019-04-16T07:49:50.511Z,4.80
2019-04-16T07:51:43.860Z,4.80
2019-04-16T07:52:43.849Z,3.10
2019-04-16T07:54:37.547Z,6.20
2019-04-16T07:57:30.543Z,4.90
2019-04-16T07:58:30.549Z,4.90
2019-04-16T08:00:23.197Z,5.10
2019-04-16T08:01:22.908Z,3.90
2019-04-16T08:03:16.584Z,3.10
2019-04-16T08:04:25.550Z,2.00
